Time;durP1;ratioP1;P1;durP2;ratioP2;P2;SDS_P1;SDS_P2;PMS_P1;PMS_P2;Temp;Humidity;BMP_temperature;BMP_pressure;BME280_temperature;BME280_humidity;BME280_pressure;Samples;Min_cycle;Max_cycle;Signal;HPM_P1;HPM_P2
2023/11/12 00:01:13;;;;;;;19.50;15.00;;;;;;;9.44;100.00;97998.70;88483;281;137159;-74
2023/11/12 00:03:16;;;;;;;17.20;13.50;;;;;;;9.46;100.00;97994.52;88479;282;22537;-72
2023/11/12 00:05:19;;;;;;;18.20;13.90;;;;;;;9.44;100.00;97991.30;88503;281;137069;-73
2023/11/12 00:07:23;;;;;;;16.20;13.10;;;;;;;9.43;100.00;97982.98;88588;281;22539;-72
2023/11/12 00:09:25;;;;;;;17.30;13.30;;;;;;;9.42;100.00;97982.11;88431;281;137223;-72
2023/11/12 00:11:28;;;;;;;16.00;14.00;;;;;;;9.41;100.00;97977.67;88429;281;22708;-74
2023/11/12 00:13:31;;;;;;;16.60;12.80;;;;;;;9.40;100.00;97973.19;88437;282;137127;-73
2023/11/12 00:15:32;;;;;;;14.70;12.10;;;;;;;9.39;100.00;97967.65;88525;282;22537;-73
2023/11/12 00:17:36;;;;;;;15.10;13.20;;;;;;;9.37;100.00;97964.75;88349;281;138394;-73
2023/11/12 00:19:38;;;;;;;14.10;12.10;;;;;;;9.35;100.00;97965.50;88581;281;25084;-74
2023/11/12 00:21:41;;;;;;;14.60;11.10;;;;;;;9.38;100.00;97960.06;88502;281;137192;-74
2023/11/12 00:23:49;;;;;;;15.00;11.40;;;;;;;9.31;100.00;97943.36;88549;277;22780;-73
2023/11/12 00:25:53;;;;;;;12.80;10.90;;;;;;;9.40;100.00;97946.28;88464;281;137214;-71
2023/11/12 00:27:55;;;;;;;11.40;10.10;;;;;;;9.39;100.00;97947.27;88637;274;22539;-69
2023/11/12 00:29:57;;;;;;;11.30;10.20;;;;;;;9.36;100.00;97943.45;88610;273;136924;-72
2023/11/12 00:32:00;;;;;;;9.60;8.60;;;;;;;9.31;100.00;97940.70;88606;274;24055;-73
2023/11/12 00:34:02;;;;;;;10.40;9.20;;;;;;;9.28;100.00;97939.65;88491;275;137320;-72
2023/11/12 00:36:04;;;;;;;10.20;9.10;;;;;;;9.30;100.00;97935.80;88441;274;137856;-71
2023/11/12 00:38:06;;;;;;;9.80;8.40;;;;;;;9.27;100.00;97934.69;88729;274;22879;-70
2023/11/12 00:40:10;;;;;;;9.30;8.30;;;;;;;9.24;100.00;97933.14;88458;281;137147;-73
2023/11/12 00:42:12;;;;;;;9.40;8.30;;;;;;;9.22;100.00;97926.92;88631;274;22629;-74
2023/11/12 00:44:15;;;;;;;10.00;7.80;;;;;;;9.20;100.00;97923.39;88422;274;138452;-74
2023/11/12 00:46:18;;;;;;;7.60;6.90;;;;;;;9.18;100.00;97918.09;88608;282;23807;-72
2023/11/12 00:48:20;;;;;;;9.40;8.50;;;;;;;9.15;100.00;97918.73;88506;281;136954;-74
2023/11/12 00:50:23;;;;;;;8.60;7.40;;;;;;;9.12;100.00;97912.98;88525;279;24054;-72
2023/11/12 00:52:25;;;;;;;8.30;7.60;;;;;;;9.11;100.00;97910.63;88470;274;136874;-71
2023/11/12 00:54:27;;;;;;;8.20;7.40;;;;;;;9.10;100.00;97908.00;88624;281;24164;-72
2023/11/12 00:56:30;;;;;;;6.80;6.20;;;;;;;9.08;100.00;97906.22;88433;281;138163;-75
2023/11/12 00:58:31;;;;;;;6.20;5.70;;;;;;;9.06;100.00;97904.64;88563;281;22530;-73
2023/11/12 01:00:33;;;;;;;6.30;5.80;;;;;;;9.04;100.00;97902.74;88462;280;136949;-74
2023/11/12 01:02:36;;;;;;;7.40;6.80;;;;;;;9.03;100.00;97896.86;88669;277;22777;-74
2023/11/12 01:04:38;;;;;;;5.00;4.60;;;;;;;9.02;100.00;97894.15;88466;280;136943;-75
2023/11/12 01:06:39;;;;;;;5.60;5.00;;;;;;;9.02;100.00;97887.65;88579;277;25167;-72
2023/11/12 01:08:44;;;;;;;6.00;5.50;;;;;;;9.00;100.00;97885.40;88432;278;136637;-72
2023/11/12 01:10:48;;;;;;;4.40;4.00;;;;;;;9.01;100.00;97879.67;88591;279;22543;-72
2023/11/12 01:12:52;;;;;;;5.90;5.40;;;;;;;9.01;100.00;97877.45;88409;274;136661;-73
2023/11/12 01:14:54;;;;;;;5.00;4.70;;;;;;;9.00;100.00;97876.78;88492;281;22536;-72
2023/11/12 01:16:56;;;;;;;4.30;4.00;;;;;;;9.01;100.00;97875.80;88458;282;137256;-72
2023/11/12 01:18:58;;;;;;;4.90;4.50;;;;;;;8.99;100.00;97872.14;88543;279;25156;-71
2023/11/12 01:21:04;;;;;;;5.20;4.80;;;;;;;9.02;100.00;97867.84;88582;273;136821;-73
2023/11/12 01:23:06;;;;;;;4.50;4.20;;;;;;;9.04;100.00;97865.17;88670;273;24020;-72
2023/11/12 01:25:09;;;;;;;5.50;3.90;;;;;;;9.04;100.00;97864.80;88556;273;137066;-72
2023/11/12 01:27:12;;;;;;;4.10;3.80;;;;;;;9.04;100.00;97861.58;88572;273;22543;-72
2023/11/12 01:29:14;;;;;;;4.60;4.30;;;;;;;9.03;100.00;97862.73;88490;277;138107;-72
2023/11/12 01:31:16;;;;;;;3.30;3.10;;;;;;;9.04;100.00;97855.45;88666;280;22527;-73
2023/11/12 01:33:19;;;;;;;3.50;3.30;;;;;;;9.02;100.00;97852.53;88491;282;136958;-73
2023/11/12 01:35:21;;;;;;;4.00;3.70;;;;;;;9.00;100.00;97851.19;88683;274;22534;-75
2023/11/12 01:37:23;;;;;;;3.40;3.20;;;;;;;8.99;100.00;97847.61;88419;273;138352;-72
2023/11/12 01:39:24;;;;;;;3.90;3.60;;;;;;;9.00;100.00;97847.34;88490;278;22548;-73
2023/11/12 01:41:26;;;;;;;3.80;3.60;;;;;;;9.01;100.00;97844.02;88429;277;136964;-74
2023/11/12 01:43:31;;;;;;;4.30;4.10;;;;;;;9.01;100.00;97840.25;88560;282;25277;-71
2023/11/12 01:45:34;;;;;;;4.20;4.00;;;;;;;9.02;100.00;97840.63;88570;280;137126;-72
2023/11/12 01:47:44;;;;;;;3.80;3.60;;;;;;;9.03;100.00;97836.40;88572;273;22533;-72
2023/11/12 01:49:47;;;;;;;3.30;3.20;;;;;;;9.03;100.00;97835.59;88616;273;138358;-71
2023/11/12 01:51:50;;;;;;;3.00;2.90;;;;;;;9.03;100.00;97833.80;88632;281;24054;-71
2023/11/12 01:53:53;;;;;;;3.70;3.50;;;;;;;9.02;100.00;97830.70;88344;275;136128;-70
2023/11/12 01:55:56;;;;;;;3.50;3.20;;;;;;;9.01;100.00;97830.11;88404;279;23755;-72
2023/11/12 01:57:58;;;;;;;3.30;3.20;;;;;;;9.01;100.00;97825.33;88516;273;137241;-73
2023/11/12 02:00:07;;;;;;;3.90;3.60;;;;;;;9.02;100.00;97821.87;88455;282;25118;-73
2023/11/12 02:02:17;;;;;;;4.40;4.10;;;;;;;9.02;100.00;97821.55;88578;282;25096;-70
2023/11/12 02:04:21;;;;;;;3.90;3.70;;;;;;;9.03;100.00;97817.86;88468;279;137159;-67
2023/11/12 02:06:24;;;;;;;5.10;4.70;;;;;;;9.03;100.00;97814.30;88627;281;22534;-72
2023/11/12 02:08:26;;;;;;;3.30;3.20;;;;;;;9.03;100.00;97814.04;88430;275;136814;-74
2023/11/12 02:10:35;;;;;;;3.90;3.70;;;;;;;9.03;100.00;97814.41;88536;281;24173;-69
2023/11/12 02:12:37;;;;;;;3.40;3.20;;;;;;;9.04;100.00;97812.04;88494;277;136820;-69
2023/11/12 02:14:39;;;;;;;3.60;3.30;;;;;;;9.04;100.00;97811.04;88607;280;22552;-67
2023/11/12 02:16:44;;;;;;;3.60;3.40;;;;;;;9.04;100.00;97810.08;88579;280;136974;-69
2023/11/12 02:18:46;;;;;;;2.80;2.70;;;;;;;9.05;100.00;97805.95;88644;280;22538;-68
2023/11/12 02:20:48;;;;;;;2.70;2.60;;;;;;;9.06;100.00;97803.26;88678;282;138729;-70
2023/11/12 02:22:50;;;;;;;3.30;3.00;;;;;;;9.08;100.00;97798.48;88465;275;22532;-74
2023/11/12 02:24:52;;;;;;;2.20;2.10;;;;;;;9.08;100.00;97797.86;88409;282;136606;-70
2023/11/12 02:26:54;;;;;;;1.90;1.80;;;;;;;9.11;100.00;97799.06;88536;281;24064;-72
2023/11/12 02:28:57;;;;;;;2.30;2.20;;;;;;;9.13;100.00;97798.77;88406;273;136860;-74
2023/11/12 02:31:00;;;;;;;2.00;2.00;;;;;;;9.13;100.00;97799.16;88678;274;22561;-72
2023/11/12 02:33:02;;;;;;;1.80;1.80;;;;;;;9.10;100.00;97799.52;88488;274;136338;-71
2023/11/12 02:35:07;;;;;;;2.50;2.40;;;;;;;9.08;100.00;97797.69;88400;275;22894;-75
2023/11/12 02:37:12;;;;;;;1.80;1.70;;;;;;;9.07;100.00;97794.48;88382;279;137391;-73
2023/11/12 02:39:14;;;;;;;;;;;;;;;9.08;100.00;97793.48;88631;277;22517;-72
2023/11/12 02:41:18;;;;;;;1.90;1.80;;;;;;;9.07;100.00;97793.64;88479;280;124805;-73
2023/11/12 02:43:20;;;;;;;2.00;1.90;;;;;;;9.04;100.00;97791.50;88593;281;23119;-73
2023/11/12 02:45:24;;;;;;;2.00;1.90;;;;;;;9.03;100.00;97793.14;89596;282;136797;-75
2023/11/12 02:47:26;;;;;;;2.60;2.50;;;;;;;9.05;100.00;97789.84;88522;274;22539;-72
2023/11/12 02:49:49;;;;;;;3.10;2.90;;;;;;;9.07;100.00;97789.75;88441;277;136844;-72
2023/11/12 02:51:51;;;;;;;2.50;2.30;;;;;;;9.07;100.00;97791.98;88513;281;22526;-75
2023/11/12 02:53:54;;;;;;;4.70;4.40;;;;;;;9.08;100.00;97789.25;88529;281;136699;-73
2023/11/12 02:55:56;;;;;;;4.00;3.70;;;;;;;9.08;100.00;97788.50;88601;281;23858;-73
2023/11/12 02:57:59;;;;;;;4.10;3.70;;;;;;;9.09;100.00;97787.98;88450;281;138005;-74
2023/11/12 03:00:02;;;;;;;4.00;3.70;;;;;;;9.10;100.00;97784.50;88669;281;25137;-70
2023/11/12 03:02:04;;;;;;;4.00;3.70;;;;;;;9.10;100.00;97786.46;88587;281;22604;-74
2023/11/12 03:04:06;;;;;;;4.20;3.90;;;;;;;9.12;100.00;97781.70;88738;281;138654;-73
2023/11/12 03:08:08;;;;;;;3.60;3.40;;;;;;;9.05;100.00;97783.83;86950;305;602449;-73
2023/11/12 03:10:10;;;;;;;4.30;4.00;;;;;;;9.07;100.00;97780.02;87924;286;22544;-74
2023/11/12 03:12:12;;;;;;;2.80;2.70;;;;;;;9.10;100.00;97780.98;87774;294;136320;-72
2023/11/12 03:14:17;;;;;;;3.40;3.20;;;;;;;9.08;100.00;97780.79;88385;285;23335;-74
2023/11/12 03:16:20;;;;;;;2.60;2.50;;;;;;;9.07;100.00;97779.08;88271;285;136171;-70
2023/11/12 03:18:22;;;;;;;3.70;3.40;;;;;;;9.08;100.00;97777.52;88338;285;22540;-73
2023/11/12 03:20:24;;;;;;;2.90;2.70;;;;;;;9.10;100.00;97779.24;88132;286;136372;-72
2023/11/12 03:22:26;;;;;;;3.00;2.20;;;;;;;9.11;100.00;97779.63;87834;285;679653;-72
2023/11/12 03:24:29;;;;;;;1.00;1.00;;;;;;;9.09;100.00;97778.09;88165;285;136301;-72
2023/11/12 03:26:31;;;;;;;1.70;1.60;;;;;;;9.07;100.00;97778.91;88359;284;22561;-71
2023/11/12 03:28:33;;;;;;;1.60;1.50;;;;;;;9.05;100.00;97778.77;88221;285;137789;-72
2023/11/12 03:30:37;;;;;;;1.10;1.10;;;;;;;9.01;100.00;97777.34;88325;278;25656;-72
2023/11/12 03:32:39;;;;;;;1.50;1.50;;;;;;;9.02;100.00;97774.95;88198;277;136513;-73
2023/11/12 03:34:42;;;;;;;0.80;0.70;;;;;;;9.01;100.00;97772.92;88203;282;25141;-71
2023/11/12 03:36:45;;;;;;;0.80;0.80;;;;;;;9.02;100.00;97768.90;88187;285;136511;-72
2023/11/12 03:38:47;;;;;;;0.40;0.40;;;;;;;9.02;100.00;97769.21;88263;285;22540;-71
2023/11/12 03:40:50;;;;;;;0.50;0.50;;;;;;;9.01;100.00;97767.86;88205;285;137867;-73
2023/11/12 03:42:53;;;;;;;0.30;0.30;;;;;;;8.98;100.00;97774.25;88428;284;22597;-73
2023/11/12 03:44:56;;;;;;;0.70;0.70;;;;;;;8.97;100.00;97771.63;88215;285;136943;-70
2023/11/12 03:46:59;;;;;;;0.20;0.20;;;;;;;8.95;100.00;97770.77;88353;284;22622;-74
2023/11/12 03:49:04;;;;;;;0.50;0.50;;;;;;;8.95;100.00;97772.52;88195;284;136026;-71
2023/11/12 03:51:06;;;;;;;0.60;0.60;;;;;;;8.93;100.00;97768.75;88523;279;23862;-70
2023/11/12 03:53:08;;;;;;;0.50;0.50;;;;;;;8.90;100.00;97770.98;88274;276;136999;-72
2023/11/12 03:55:11;;;;;;;0.60;0.60;;;;;;;8.87;100.00;97772.31;88368;284;22539;-71
2023/11/12 03:57:14;;;;;;;0.70;0.70;;;;;;;8.87;100.00;97768.81;88315;285;138834;-74
2023/11/12 03:59:16;;;;;;;0.50;0.50;;;;;;;8.86;100.00;97767.84;88537;282;24014;-71
2023/11/12 04:01:18;;;;;;;0.50;0.40;;;;;;;8.86;100.00;97772.58;88286;283;136278;-71
2023/11/12 04:03:20;;;;;;;0.90;0.80;;;;;;;8.85;100.00;97777.59;88394;275;24052;-71
2023/11/12 04:05:22;;;;;;;0.70;0.70;;;;;;;8.84;100.00;97777.10;88411;277;137078;-74
2023/11/12 04:07:24;;;;;;;2.60;0.50;;;;;;;8.83;100.00;97775.81;88313;282;24150;-72
2023/11/12 04:09:26;;;;;;;0.70;0.50;;;;;;;8.83;100.00;97776.55;88096;276;136782;-76
2023/11/12 04:11:28;;;;;;;0.50;0.50;;;;;;;8.80;100.00;97775.21;88490;283;25169;-73
2023/11/12 04:13:30;;;;;;;0.90;0.50;;;;;;;8.77;100.00;97775.55;88157;284;136703;-71
2023/11/12 04:15:33;;;;;;;0.60;0.50;;;;;;;8.76;100.00;97776.96;88367;284;22719;-70
2023/11/12 04:17:36;;;;;;;0.60;0.60;;;;;;;8.74;100.00;97773.59;88257;284;137281;-72
2023/11/12 04:19:39;;;;;;;0.40;0.30;;;;;;;8.72;100.00;97774.14;88350;277;22539;-71
2023/11/12 04:21:41;;;;;;;0.40;0.30;;;;;;;8.67;100.00;97774.58;88352;282;139149;-72
2023/11/12 04:23:44;;;;;;;0.40;0.20;;;;;;;8.63;100.00;97770.94;88358;278;22545;-74
2023/11/12 04:25:48;;;;;;;0.40;0.40;;;;;;;8.60;100.00;97769.20;88529;282;136932;-74
2023/11/12 04:27:53;;;;;;;0.80;0.50;;;;;;;8.60;100.00;97768.88;88411;281;22534;-72
2023/11/12 04:29:55;;;;;;;0.90;0.30;;;;;;;8.60;100.00;97771.58;88133;278;135864;-74
2023/11/12 04:31:57;;;;;;;0.60;0.20;;;;;;;8.58;100.00;97770.65;88344;277;22613;-72
2023/11/12 04:33:58;;;;;;;0.50;0.50;;;;;;;8.55;100.00;97769.02;88280;277;137704;-71
2023/11/12 04:36:01;;;;;;;0.40;0.10;;;;;;;8.54;100.00;97766.48;88349;282;22625;-71
2023/11/12 04:38:04;;;;;;;1.80;0.30;;;;;;;8.51;100.00;97771.69;88436;283;22537;-72
2023/11/12 04:40:11;;;;;;;0.10;0.10;;;;;;;8.47;100.00;97771.77;88439;274;136564;-69
2023/11/12 04:42:13;;;;;;;0.20;0.10;;;;;;;8.46;100.00;97773.77;88512;278;23633;-67
2023/11/12 04:44:15;;;;;;;1.30;0.10;;;;;;;8.41;100.00;97762.63;88410;278;138928;-69
2023/11/12 04:46:19;;;;;;;0.10;0.10;;;;;;;8.50;100.00;97771.63;88540;278;22537;-71
2023/11/12 04:48:21;;;;;;;0.10;0.10;;;;;;;8.44;100.00;97770.34;88388;274;136644;-68
2023/11/12 04:50:24;;;;;;;0.20;0.20;;;;;;;8.43;100.00;97771.85;88392;281;22542;-70
2023/11/12 04:52:26;;;;;;;0.10;0.10;;;;;;;8.39;100.00;97772.05;88342;274;136569;-68
2023/11/12 04:54:28;;;;;;;0.10;0.10;;;;;;;8.39;100.00;97773.84;88492;282;22647;-71
2023/11/12 04:56:30;;;;;;;0.10;0.10;;;;;;;8.38;100.00;97780.02;88355;282;137935;-72
2023/11/12 04:58:34;;;;;;;0.10;0.10;;;;;;;8.36;100.00;97782.84;88531;281;24055;-74
2023/11/12 05:00:39;;;;;;;0.10;0.10;;;;;;;8.34;100.00;97786.32;88424;273;136524;-71
2023/11/12 05:02:40;;;;;;;0.20;0.10;;;;;;;8.33;100.00;97786.73;88331;273;22612;-72
2023/11/12 05:04:42;;;;;;;0.20;0.20;;;;;;;8.33;100.00;97789.55;88290;273;136597;-71
2023/11/12 05:06:44;;;;;;;0.20;0.20;;;;;;;8.33;100.00;97786.77;88374;274;22534;-70
2023/11/12 05:08:46;;;;;;;0.20;0.20;;;;;;;8.28;100.00;97789.54;88285;274;136496;-70
2023/11/12 05:10:48;;;;;;;1.80;0.20;;;;;;;8.21;100.00;97790.25;88336;274;22553;-75
2023/11/12 05:12:50;;;;;;;0.40;0.40;;;;;;;8.19;100.00;97786.77;88180;274;136348;-72
2023/11/12 05:14:52;;;;;;;0.20;0.10;;;;;;;8.13;100.00;97784.59;88397;281;24050;-71
2023/11/12 05:16:54;;;;;;;0.20;0.10;;;;;;;8.18;100.00;97794.02;88237;274;136793;-75
2023/11/12 05:18:56;;;;;;;0.70;0.10;;;;;;;8.20;100.00;97793.63;88619;274;25393;-75
2023/11/12 05:20:58;;;;;;;5.40;0.10;;;;;;;8.18;100.00;97794.39;88524;274;136504;-74
2023/11/12 05:23:01;;;;;;;0.20;0.10;;;;;;;8.14;100.00;97797.38;88628;281;22621;-70
2023/11/12 05:25:03;;;;;;;0.40;0.20;;;;;;;8.09;100.00;97799.09;88348;281;136167;-73
2023/11/12 05:27:08;;;;;;;0.70;0.10;;;;;;;8.08;100.00;97799.91;88464;278;24212;-70
2023/11/12 05:29:10;;;;;;;0.30;0.20;;;;;;;8.02;100.00;97794.80;88349;274;138036;-71
2023/11/12 05:31:12;;;;;;;0.10;0.10;;;;;;;8.06;100.00;97803.91;88497;281;25229;-73
2023/11/12 05:33:15;;;;;;;0.20;0.10;;;;;;;8.06;100.00;97807.83;88459;274;136334;-74
2023/11/12 05:35:18;;;;;;;0.10;0.10;;;;;;;7.97;100.00;97797.41;88608;278;23411;-73
2023/11/12 05:37:20;;;;;;;0.30;0.30;;;;;;;8.05;100.00;97815.08;88427;275;136548;-72
2023/11/12 05:39:23;;;;;;;2.00;0.40;;;;;;;8.05;100.00;97813.70;88484;279;25086;-79
2023/11/12 05:41:24;;;;;;;0.30;0.30;;;;;;;8.06;100.00;97815.69;88639;274;138165;-74
2023/11/12 05:43:26;;;;;;;0.40;0.20;;;;;;;8.09;100.00;97819.56;88356;278;22629;-72
2023/11/12 05:45:29;;;;;;;0.40;0.40;;;;;;;8.10;100.00;97820.02;88324;274;137909;-73
2023/11/12 05:47:31;;;;;;;0.40;0.20;;;;;;;8.13;100.00;97822.30;88450;274;22537;-69
2023/11/12 05:49:32;;;;;;;0.50;0.30;;;;;;;8.13;100.00;97820.50;88358;273;136522;-71
2023/11/12 05:51:35;;;;;;;0.20;0.20;;;;;;;8.13;100.00;97822.99;88542;277;22537;-73
2023/11/12 05:53:37;;;;;;;0.50;0.30;;;;;;;8.09;100.00;97824.40;88400;273;136474;-74
2023/11/12 05:55:39;;;;;;;0.60;0.20;;;;;;;8.06;100.00;97829.02;88529;275;24049;-71
2023/11/12 05:57:42;;;;;;;0.40;0.40;;;;;;;7.99;100.00;97820.43;88287;277;137603;-70
2023/11/12 05:59:44;;;;;;;0.30;0.20;;;;;;;8.06;100.00;97832.34;88348;275;22524;-71
2023/11/12 06:01:46;;;;;;;0.70;0.20;;;;;;;8.04;100.00;97835.38;88023;275;137192;-77
2023/11/12 06:03:48;;;;;;;0.20;0.10;;;;;;;8.04;100.00;97839.04;88320;278;24013;-70
2023/11/12 06:05:51;;;;;;;0.10;0.10;;;;;;;8.03;100.00;97840.66;91116;282;136466;-74
2023/11/12 06:07:52;;;;;;;0.20;0.20;;;;;;;8.03;100.00;97840.46;91295;282;22228;-74
2023/11/12 06:09:55;;;;;;;1.20;1.10;;;;;;;8.03;100.00;97840.57;91224;279;137959;-74
2023/11/12 06:12:04;;;;;;;0.80;0.60;;;;;;;8.04;100.00;97839.52;88856;282;22544;-74
2023/11/12 06:14:06;;;;;;;1.40;1.30;;;;;;;8.06;100.00;97840.20;91344;280;22311;-74
2023/11/12 06:16:08;;;;;;;1.30;1.20;;;;;;;8.04;100.00;97844.29;91287;280;137019;-73
2023/11/12 06:18:10;;;;;;;0.60;0.60;;;;;;;8.06;100.00;97843.39;90145;282;22530;-73
2023/11/12 06:20:12;;;;;;;0.40;0.30;;;;;;;8.07;100.00;97842.01;88374;280;136860;-74
2023/11/12 06:22:15;;;;;;;0.20;0.10;;;;;;;7.99;100.00;97840.00;88558;280;23505;-80
2023/11/12 06:24:17;;;;;;;0.10;0.10;;;;;;;7.95;100.00;97843.58;88418;280;136938;-75
2023/11/12 06:26:22;;;;;;;0.30;0.10;;;;;;;7.94;100.00;97846.16;88945;282;24971;-76
2023/11/12 06:28:24;;;;;;;;;;;;;;;7.95;100.00;97845.49;88596;283;136204;-74
2023/11/12 06:30:26;;;;;;;0.10;0.10;;;;;;;7.94;100.00;97846.69;88751;278;22598;-76
2023/11/12 06:32:28;;;;;;;0.30;0.10;;;;;;;7.90;100.00;97850.15;88829;279;136873;-75
2023/11/12 06:34:30;;;;;;;0.30;0.30;;;;;;;7.81;100.00;97850.42;88855;273;24054;-74
2023/11/12 06:36:32;;;;;;;0.60;0.40;;;;;;;7.85;100.00;97856.94;88704;280;137190;-74
2023/11/12 06:38:34;;;;;;;0.90;0.80;;;;;;;7.83;100.00;97859.70;88847;274;22537;-76
2023/11/12 06:40:35;;;;;;;0.70;0.70;;;;;;;7.80;100.00;97858.05;88567;278;136605;-75
2023/11/12 06:42:41;;;;;;;0.50;0.50;;;;;;;7.77;100.00;97858.73;88747;274;22600;-76
2023/11/12 06:44:43;;;;;;;1.40;0.20;;;;;;;7.76;100.00;97856.99;88620;275;137439;-73
2023/11/12 06:46:46;;;;;;;0.30;0.10;;;;;;;7.73;100.00;97862.08;88704;274;24052;-71
2023/11/12 06:48:48;;;;;;;0.20;0.20;;;;;;;7.73;100.00;97861.91;88725;274;136858;-75
2023/11/12 06:50:50;;;;;;;0.10;0.10;;;;;;;7.73;100.00;97861.39;88967;275;22572;-75
2023/11/12 06:52:52;;;;;;;0.50;0.20;;;;;;;7.73;100.00;97864.20;88656;273;136739;-74
2023/11/12 06:54:53;;;;;;;0.10;0.10;;;;;;;7.71;100.00;97864.69;88571;282;22527;-76
2023/11/12 06:56:56;;;;;;;0.70;0.20;;;;;;;7.68;100.00;97871.09;88573;274;136701;-77
2023/11/12 06:58:57;;;;;;;0.40;0.20;;;;;;;7.67;100.00;97869.16;88726;281;22537;-76
2023/11/12 07:00:59;;;;;;;0.20;0.20;;;;;;;7.68;100.00;97870.29;88589;274;136501;-76
2023/11/12 07:03:01;;;;;;;0.70;0.40;;;;;;;7.69;100.00;97872.19;88598;279;22537;-73
2023/11/12 07:05:04;;;;;;;0.50;0.20;;;;;;;7.72;100.00;97875.14;88889;281;137101;-73
2023/11/12 07:07:06;;;;;;;0.50;0.40;;;;;;;7.73;100.00;97872.52;88758;282;22524;-75
2023/11/12 07:09:17;;;;;;;0.50;0.30;;;;;;;7.73;100.00;97876.44;88686;281;137841;-75
2023/11/12 07:11:20;;;;;;;0.40;0.40;;;;;;;7.72;100.00;97876.86;88912;273;23716;-77
2023/11/12 07:13:21;;;;;;;0.30;0.30;;;;;;;7.73;100.00;97876.10;88578;281;137232;-76
2023/11/12 07:15:23;;;;;;;0.50;0.50;;;;;;;7.74;100.00;97879.23;88736;275;22534;-75
2023/11/12 07:17:25;;;;;;;0.50;0.50;;;;;;;7.74;100.00;97879.80;88628;281;136455;-72
2023/11/12 07:19:27;;;;;;;0.70;0.50;;;;;;;7.74;100.00;97878.17;88814;277;25198;-68
2023/11/12 07:21:31;;;;;;;0.50;0.40;;;;;;;7.71;100.00;97880.80;88644;281;136909;-73
2023/11/12 07:23:33;;;;;;;0.40;0.30;;;;;;;7.67;100.00;97878.59;88552;274;22636;-72
2023/11/12 07:25:35;;;;;;;0.20;0.20;;;;;;;7.66;100.00;97880.15;88390;275;136716;-73
2023/11/12 07:27:36;;;;;;;0.30;0.20;;;;;;;7.66;100.00;97885.94;88997;282;22562;-74
2023/11/12 07:29:38;;;;;;;0.40;0.20;;;;;;;7.65;100.00;97888.14;88794;281;138773;-74
2023/11/12 07:31:42;;;;;;;0.40;0.40;;;;;;;7.63;100.00;97887.34;88747;282;22596;-73
2023/11/12 07:33:44;;;;;;;0.50;0.50;;;;;;;7.59;100.00;97891.25;89008;277;137899;-73
2023/11/12 07:35:48;;;;;;;0.40;0.20;;;;;;;7.60;100.00;97888.31;88839;274;22553;-73
2023/11/12 07:37:51;;;;;;;0.40;0.40;;;;;;;7.59;100.00;97892.40;88783;281;136394;-74
2023/11/12 07:39:53;;;;;;;1.00;0.40;;;;;;;7.58;100.00;97895.83;88625;280;23981;-80
2023/11/12 07:41:55;;;;;;;0.80;0.60;;;;;;;7.57;100.00;97895.33;88822;274;136993;-73
2023/11/12 07:43:57;;;;;;;0.70;0.70;;;;;;;7.59;100.00;97901.00;89038;278;22584;-74
2023/11/12 07:45:59;;;;;;;0.80;0.80;;;;;;;7.59;100.00;97900.64;88758;281;136277;-73
2023/11/12 07:48:01;;;;;;;0.60;0.60;;;;;;;7.61;100.00;97904.02;88945;274;22534;-75
2023/11/12 07:50:05;;;;;;;0.30;0.30;;;;;;;7.64;100.00;97907.58;88856;282;22553;-77
2023/11/12 07:52:07;;;;;;;1.10;1.10;;;;;;;7.66;100.00;97910.29;89020;279;138710;-76
2023/11/12 07:54:09;;;;;;;0.60;0.60;;;;;;;7.69;100.00;97910.73;88524;278;25286;-74
2023/11/12 07:56:11;;;;;;;1.00;0.60;;;;;;;7.71;100.00;97910.16;88943;282;137663;-73
2023/11/12 07:58:13;;;;;;;0.60;0.60;;;;;;;7.75;100.00;97913.31;88830;274;22886;-71
2023/11/12 08:00:15;;;;;;;0.80;0.80;;;;;;;7.77;100.00;97916.22;88316;278;136996;-73
2023/11/12 08:02:17;;;;;;;0.50;0.50;;;;;;;7.79;100.00;97916.14;89359;281;22685;-73
2023/11/12 08:04:19;;;;;;;2.00;1.30;;;;;;;7.81;100.00;97917.80;89166;274;136703;-75
2023/11/12 08:06:22;;;;;;;0.70;0.70;;;;;;;7.83;100.00;97918.58;89320;281;25226;-73
2023/11/12 08:08:26;;;;;;;1.20;1.10;;;;;;;7.85;100.00;97925.27;88618;281;137760;-74
2023/11/12 08:10:28;;;;;;;1.60;0.70;;;;;;;7.86;100.00;97929.38;88999;281;22643;-72
2023/11/12 08:12:34;;;;;;;0.70;0.70;;;;;;;7.83;100.00;97928.13;88734;281;137635;-72
2023/11/12 08:14:37;;;;;;;0.60;0.50;;;;;;;7.78;100.00;97931.88;88873;282;24170;-75
2023/11/12 08:16:39;;;;;;;0.40;0.40;;;;;;;7.75;100.00;97931.06;88790;281;136543;-73
2023/11/12 08:18:43;;;;;;;1.00;0.90;;;;;;;7.73;100.00;97934.00;88808;281;25328;-76
2023/11/12 08:20:45;;;;;;;0.70;0.50;;;;;;;7.72;100.00;97940.42;88942;281;136624;-78
2023/11/12 08:22:47;;;;;;;0.90;0.90;;;;;;;7.69;100.00;97942.02;88908;277;22532;-76
2023/11/12 08:24:49;;;;;;;1.10;0.90;;;;;;;7.67;100.00;97942.61;88695;279;136893;-75
2023/11/12 08:26:51;;;;;;;0.90;0.80;;;;;;;7.67;100.00;97945.03;88968;282;22545;-72
2023/11/12 08:28:56;;;;;;;3.90;1.80;;;;;;;7.68;100.00;97945.73;88806;277;137212;-77
2023/11/12 08:30:58;;;;;;;1.20;1.10;;;;;;;7.68;100.00;97948.40;89509;281;24049;-75
2023/11/12 08:33:01;;;;;;;3.10;2.00;;;;;;;7.69;100.00;97952.77;88824;278;137784;-75
2023/11/12 08:35:04;;;;;;;2.10;2.00;;;;;;;7.68;100.00;97951.58;89122;274;24054;-76
2023/11/12 08:37:06;;;;;;;2.10;1.90;;;;;;;7.70;100.00;97953.70;88710;281;136605;-75
2023/11/12 08:39:12;;;;;;;2.10;1.90;;;;;;;7.72;100.00;97954.45;88879;282;24168;-74
2023/11/12 08:41:14;;;;;;;2.20;2.00;;;;;;;7.71;100.00;97957.12;88702;278;136575;-75
2023/11/12 08:43:16;;;;;;;1.80;1.70;;;;;;;7.69;100.00;97955.32;88720;283;25098;-74
2023/11/12 08:45:19;;;;;;;3.30;2.80;;;;;;;7.70;100.00;97958.67;88649;282;136600;-75
2023/11/12 08:47:21;;;;;;;3.40;3.10;;;;;;;7.65;100.00;97944.52;88714;275;22607;-74
2023/11/12 08:49:25;;;;;;;3.20;2.90;;;;;;;7.72;100.00;97961.23;88656;275;137681;-75
2023/11/12 08:51:27;;;;;;;4.00;3.60;;;;;;;7.71;100.00;97958.38;89159;282;24037;-75
2023/11/12 08:53:29;;;;;;;2.60;2.40;;;;;;;7.57;100.00;97935.15;88546;275;137398;-75
2023/11/12 08:55:31;;;;;;;3.10;2.80;;;;;;;7.72;100.00;97959.44;88809;278;25140;-75
2023/11/12 08:57:34;;;;;;;3.70;3.40;;;;;;;7.71;100.00;97961.36;88734;282;137749;-75
2023/11/12 08:59:36;;;;;;;3.60;3.40;;;;;;;7.72;100.00;97965.63;88808;275;25395;-79
2023/11/12 09:01:38;;;;;;;4.70;4.40;;;;;;;7.72;100.00;97963.46;88602;283;136371;-72
2023/11/12 09:03:40;;;;;;;3.10;2.90;;;;;;;7.71;100.00;97963.60;88767;274;24098;-73
2023/11/12 09:05:42;;;;;;;1.80;1.70;;;;;;;7.67;100.00;97961.05;88648;279;136546;-71
2023/11/12 09:07:44;;;;;;;2.60;1.80;;;;;;;7.66;100.00;97968.63;88611;275;23995;-72
2023/11/12 09:09:46;;;;;;;1.80;1.70;;;;;;;7.68;100.00;97966.17;89236;278;136425;-69
2023/11/12 09:11:48;;;;;;;1.70;1.60;;;;;;;7.72;100.00;97970.23;88807;280;22568;-68
2023/11/12 09:13:50;;;;;;;2.10;1.90;;;;;;;7.77;100.00;97967.99;88662;274;136576;-74
2023/11/12 09:15:52;;;;;;;4.20;3.40;;;;;;;7.80;100.00;97971.45;89516;281;22541;-70
2023/11/12 09:17:55;;;;;;;5.30;4.90;;;;;;;7.80;100.00;97971.71;89059;281;136400;-73
2023/11/12 09:19:57;;;;;;;6.30;5.60;;;;;;;7.81;100.00;97973.64;89250;278;22534;-71
2023/11/12 09:21:59;;;;;;;6.60;4.80;;;;;;;7.83;100.00;97976.76;88824;281;137639;-70
2023/11/12 09:24:01;;;;;;;2.80;2.60;;;;;;;7.88;100.00;97977.36;89004;281;22550;-71
2023/11/12 09:26:04;;;;;;;1.30;1.20;;;;;;;7.90;100.00;97978.89;88634;273;22700;-73
2023/11/12 09:28:06;;;;;;;1.20;1.10;;;;;;;7.90;100.00;97982.61;88322;273;136814;-71
2023/11/12 09:30:09;;;;;;;1.30;1.20;;;;;;;7.88;100.00;97985.13;88470;279;25108;-74
2023/11/12 09:32:11;;;;;;;1.00;1.00;;;;;;;7.89;100.00;97987.73;89468;281;136879;-75
2023/11/12 09:34:13;;;;;;;1.30;1.20;;;;;;;7.90;100.00;97986.19;89548;281;22569;-70
2023/11/12 09:36:17;;;;;;;0.70;0.60;;;;;;;7.94;100.00;97992.20;89033;281;137727;-74
2023/11/12 09:38:19;;;;;;;2.30;0.80;;;;;;;7.90;100.00;97986.73;89241;274;22588;-75
2023/11/12 09:40:23;;;;;;;2.00;0.90;;;;;;;7.88;100.00;97989.95;88898;277;136917;-75
2023/11/12 09:42:27;;;;;;;1.20;1.20;;;;;;;7.89;100.00;97990.34;88878;274;22536;-73